createdAt,value
2022-12-25T00:02:15.664Z,0.26
2022-12-25T00:04:43.626Z,0.36
2022-12-25T00:07:11.831Z,0.32
2022-12-25T00:09:39.800Z,0.40
2022-12-25T00:12:07.935Z,0.41
2022-12-25T00:14:35.968Z,0.35
2022-12-25T00:17:03.956Z,0.34
2022-12-25T00:19:33.416Z,0.28
2022-12-25T00:22:01.400Z,0.23
2022-12-25T00:24:29.350Z,0.04
2022-12-25T00:26:57.344Z,0.08
2022-12-25T00:29:25.443Z,0.01
2022-12-25T00:31:53.470Z,0.05
2022-12-25T00:34:21.499Z,-0.03
2022-12-25T00:36:52.781Z,0.02
2022-12-25T00:39:20.718Z,0.01
2022-12-25T00:42:06.102Z,0.02
2022-12-25T00:44:34.051Z,-0.08
2022-12-25T00:47:02.344Z,0.01
2022-12-25T00:49:30.311Z,0.05
2022-12-25T00:52:00.018Z,0.08
2022-12-25T00:54:28.064Z,0.09
2022-12-25T00:56:55.949Z,0.07
2022-12-25T00:59:23.957Z,-0.12
2022-12-25T01:01:52.058Z,-0.09
2022-12-25T01:04:20.154Z,-0.11
2022-12-25T01:06:48.136Z,-0.07
2022-12-25T01:09:35.185Z,-0.03
2022-12-25T01:12:03.123Z,-0.11
2022-12-25T01:14:31.145Z,-0.17
2022-12-25T01:16:59.116Z,-0.31
2022-12-25T01:19:26.997Z,-0.31
2022-12-25T01:21:54.958Z,-0.22
2022-12-25T01:24:24.286Z,-0.18
2022-12-25T01:26:52.415Z,-0.24
2022-12-25T01:29:20.308Z,-0.24
2022-12-25T01:31:48.284Z,-0.35
2022-12-25T01:34:16.398Z,-0.51
2022-12-25T01:36:44.340Z,-0.40
2022-12-25T01:39:12.360Z,-0.50
2022-12-25T01:41:41.807Z,-0.45
2022-12-25T01:44:29.824Z,-0.51
2022-12-25T01:46:57.801Z,-0.64
2022-12-25T01:49:27.177Z,-0.78
2022-12-25T01:51:58.499Z,-0.79
2022-12-25T01:54:28.892Z,-0.82
2022-12-25T01:56:59.312Z,-0.86
2022-12-25T01:59:28.008Z,-1.09
2022-12-25T02:01:56.095Z,-1.14
2022-12-25T02:04:38.837Z,-1.04
2022-12-25T02:07:07.084Z,-1.15
2022-12-25T02:09:35.389Z,-1.18
2022-12-25T02:12:05.223Z,-1.20
2022-12-25T02:14:35.052Z,-1.22
2022-12-25T02:17:07.160Z,-1.27
2022-12-25T02:19:59.718Z,-1.18
2022-12-25T02:22:35.714Z,-1.22
2022-12-25T02:25:12.438Z,-1.19
2022-12-25T02:27:58.469Z,-1.20
2022-12-25T02:30:26.818Z,-1.28
2022-12-25T02:33:19.082Z,-1.22
2022-12-25T02:35:47.850Z,-1.30
2022-12-25T02:38:17.379Z,-1.46
2022-12-25T02:40:45.711Z,-1.25
2022-12-25T02:43:35.131Z,-1.54
2022-12-25T02:46:23.710Z,-1.52
2022-12-25T02:49:10.292Z,-1.51
2022-12-25T02:51:57.786Z,-1.57
2022-12-25T02:54:45.414Z,-1.81
2022-12-25T02:57:32.593Z,-1.87
2022-12-25T03:00:20.581Z,-1.93
2022-12-25T03:03:06.837Z,-1.82
2022-12-25T03:05:53.069Z,-1.96
2022-12-25T03:08:23.636Z,-1.96
2022-12-25T03:11:14.186Z,-1.98
2022-12-25T03:13:44.124Z,-1.98
2022-12-25T03:16:30.911Z,-1.90
2022-12-25T03:18:59.374Z,-2.08
2022-12-25T03:21:44.591Z,-2.10
2022-12-25T03:24:29.894Z,-2.06
2022-12-25T03:26:58.294Z,-1.96
2022-12-25T03:29:44.482Z,-1.91
2022-12-25T03:32:19.806Z,-2.06
2022-12-25T03:35:25.877Z,-2.05
2022-12-25T03:38:15.960Z,-2.16
2022-12-25T03:41:09.113Z,-2.28
2022-12-25T03:43:59.812Z,-2.35
2022-12-25T03:46:47.727Z,-2.37
2022-12-25T03:49:37.305Z,-2.40
2022-12-25T03:52:26.037Z,-2.42
2022-12-25T03:55:12.770Z,-2.40
2022-12-25T03:57:58.252Z,-2.41
2022-12-25T04:00:43.752Z,-2.30
2022-12-25T04:03:29.431Z,-2.52
2022-12-25T04:06:16.106Z,-2.42
2022-12-25T04:09:01.940Z,-2.48
2022-12-25T04:11:47.201Z,-2.66
2022-12-25T04:14:32.425Z,-2.63
2022-12-25T04:17:18.280Z,-2.65
2022-12-25T04:20:03.829Z,-2.46
2022-12-25T04:22:50.749Z,-2.46
2022-12-25T04:25:36.305Z,-2.48
2022-12-25T04:28:22.147Z,-2.44
2022-12-25T04:31:07.600Z,-2.54
2022-12-25T04:33:53.143Z,-2.35
2022-12-25T04:36:22.859Z,-2.27
2022-12-25T04:38:52.641Z,-2.47
2022-12-25T04:41:20.542Z,-2.52
2022-12-25T04:43:48.467Z,-2.42
2022-12-25T04:46:16.440Z,-2.43
2022-12-25T04:48:44.373Z,-2.34
2022-12-25T04:51:13.695Z,-2.36
2022-12-25T04:53:41.917Z,-2.31
2022-12-25T04:56:11.443Z,-2.22
2022-12-25T04:58:39.725Z,-2.30
2022-12-25T05:01:07.740Z,-2.32
2022-12-25T05:03:35.749Z,-2.26
2022-12-25T05:06:04.203Z,-2.31
2022-12-25T05:08:32.868Z,-2.44
2022-12-25T05:11:01.035Z,-2.38
2022-12-25T05:13:30.556Z,-2.26
2022-12-25T05:15:58.720Z,-2.26
2022-12-25T05:18:26.848Z,-2.45
2022-12-25T05:20:55.274Z,-2.42
2022-12-25T05:23:23.377Z,-2.68
2022-12-25T05:25:51.424Z,-2.51
2022-12-25T05:28:19.420Z,-2.44
2022-12-25T05:30:48.834Z,-2.63
2022-12-25T05:33:16.922Z,-2.58
2022-12-25T05:35:45.077Z,-2.51
2022-12-25T05:38:12.984Z,-2.45
2022-12-25T05:40:42.118Z,-2.33
2022-12-25T05:43:10.037Z,-2.35
2022-12-25T05:45:38.231Z,-2.36
2022-12-25T05:48:07.925Z,-2.44
2022-12-25T05:50:37.798Z,-2.30
2022-12-25T05:53:08.233Z,-2.27
2022-12-25T05:55:36.948Z,-2.26
2022-12-25T05:58:05.573Z,-2.22
2022-12-25T06:00:33.895Z,-2.19
2022-12-25T06:03:02.461Z,-2.18
2022-12-25T06:05:32.372Z,-2.11
2022-12-25T06:08:00.272Z,-2.10
2022-12-25T06:10:28.186Z,-2.25
2022-12-25T06:12:56.725Z,-2.30
2022-12-25T06:15:24.779Z,-2.24
2022-12-25T06:17:52.923Z,-2.20
2022-12-25T06:20:22.143Z,-2.27
2022-12-25T06:22:51.889Z,-2.32
2022-12-25T06:25:20.190Z,-2.30
2022-12-25T06:27:48.216Z,-2.26
2022-12-25T06:30:16.670Z,-2.20
2022-12-25T06:32:44.695Z,-2.33
2022-12-25T06:35:12.721Z,-2.27
2022-12-25T06:37:40.812Z,-2.35
2022-12-25T06:40:10.859Z,-2.26
2022-12-25T06:42:38.856Z,-2.18
2022-12-25T06:45:07.167Z,-2.21
2022-12-25T06:47:35.210Z,-2.25
2022-12-25T06:50:03.617Z,-2.15
2022-12-25T06:52:32.963Z,-2.21
2022-12-25T06:55:01.028Z,-2.18
2022-12-25T06:57:30.523Z,-2.11
2022-12-25T06:59:58.500Z,-2.08
2022-12-25T07:02:26.765Z,-2.02
2022-12-25T07:04:55.099Z,-2.02
2022-12-25T07:07:23.844Z,-2.13
2022-12-25T07:09:51.913Z,-2.08
2022-12-25T07:12:21.681Z,-2.04
2022-12-25T07:14:51.270Z,-2.03
2022-12-25T07:17:19.582Z,-2.04
2022-12-25T07:19:47.802Z,-2.03
2022-12-25T07:22:16.105Z,-2.01
2022-12-25T07:24:44.135Z,-2.17
2022-12-25T07:27:12.207Z,-2.20
2022-12-25T07:29:40.310Z,-2.20
2022-12-25T07:32:09.723Z,-2.25
2022-12-25T07:34:37.700Z,-2.40
2022-12-25T07:37:05.692Z,-2.47
2022-12-25T07:39:34.693Z,-2.27
2022-12-25T07:42:02.780Z,-2.22
2022-12-25T07:44:30.857Z,-2.17
2022-12-25T07:46:58.879Z,-2.08
2022-12-25T07:49:28.333Z,-2.19
2022-12-25T07:51:56.298Z,-2.16
2022-12-25T07:54:24.455Z,-2.23
2022-12-25T07:56:53.447Z,-2.30
2022-12-25T07:59:21.708Z,-2.23
2022-12-25T08:01:50.719Z,-2.19
2022-12-25T08:04:19.037Z,-2.17
2022-12-25T08:06:48.474Z,-2.22
2022-12-25T08:09:16.489Z,-2.36
2022-12-25T08:11:46.921Z,-2.19
2022-12-25T08:14:15.086Z,-2.12
2022-12-25T08:16:43.119Z,-2.12
2022-12-25T08:19:11.459Z,-2.15
2022-12-25T08:21:39.805Z,-2.12
2022-12-25T08:24:09.700Z,-2.25
2022-12-25T08:26:37.629Z,-2.33
2022-12-25T08:29:05.639Z,-2.17
2022-12-25T08:31:37.233Z,-2.10
2022-12-25T08:34:07.481Z,-2.11
2022-12-25T08:36:37.553Z,-2.07
2022-12-25T08:39:05.851Z,-2.06
2022-12-25T08:41:36.665Z,-1.97
2022-12-25T08:44:05.002Z,-2.03
2022-12-25T08:46:33.058Z,-2.07
2022-12-25T08:49:01.038Z,-2.17
2022-12-25T08:51:29.069Z,-2.20
2022-12-25T08:54:00.202Z,-2.01
2022-12-25T08:56:29.005Z,-2.14
2022-12-25T08:58:58.440Z,-2.04
2022-12-25T09:01:26.555Z,-2.05
2022-12-25T09:03:54.638Z,-2.27
2022-12-25T09:06:22.865Z,-2.14
2022-12-25T09:08:51.593Z,-2.13
2022-12-25T09:11:20.770Z,-2.07
2022-12-25T09:13:48.959Z,-2.12
2022-12-25T09:16:20.500Z,-2.17
2022-12-25T09:18:48.509Z,-2.19
2022-12-25T09:21:17.163Z,-2.23
2022-12-25T09:23:45.377Z,-2.17
2022-12-25T09:26:14.853Z,-2.28
2022-12-25T09:28:50.301Z,-2.26
2022-12-25T09:31:21.368Z,-2.21
2022-12-25T09:33:49.817Z,-2.15
2022-12-25T09:36:17.941Z,-2.23
2022-12-25T09:38:46.096Z,-2.18
2022-12-25T09:41:17.481Z,-2.17
2022-12-25T09:43:48.031Z,-2.11
2022-12-25T09:46:18.533Z,-2.11
2022-12-25T09:48:50.255Z,-2.12
2022-12-25T09:51:18.525Z,-2.13
2022-12-25T09:53:49.596Z,-2.11
2022-12-25T09:56:19.182Z,-2.17
2022-12-25T09:58:47.158Z,-2.19
2022-12-25T10:01:19.260Z,-2.15
2022-12-25T10:04:03.262Z,-2.23
2022-12-25T10:06:38.333Z,-2.18
2022-12-25T10:09:22.718Z,-2.23
2022-12-25T10:11:56.964Z,-2.11
2022-12-25T10:14:28.328Z,-2.15
2022-12-25T10:17:03.930Z,-2.08
2022-12-25T10:19:42.828Z,-2.16
2022-12-25T10:22:18.077Z,-2.19
2022-12-25T10:24:49.735Z,-2.30
2022-12-25T10:27:20.080Z,-2.42
2022-12-25T10:29:51.201Z,-2.40
2022-12-25T10:32:19.178Z,-2.41
2022-12-25T10:34:49.725Z,-2.37
2022-12-25T10:37:18.340Z,-2.38
2022-12-25T10:39:47.205Z,-2.39
2022-12-25T10:42:39.253Z,-2.37
2022-12-25T10:45:08.270Z,-2.33
2022-12-25T10:47:38.520Z,-2.32
2022-12-25T10:50:11.244Z,-2.47
2022-12-25T10:52:48.585Z,-2.42
2022-12-25T10:55:24.945Z,-2.30
2022-12-25T10:57:58.119Z,-2.15
2022-12-25T11:00:27.266Z,-2.08
2022-12-25T11:02:55.666Z,-2.02
2022-12-25T11:05:28.611Z,-2.03
2022-12-25T11:07:57.274Z,-2.03
2022-12-25T11:10:26.473Z,-2.00
2022-12-25T11:12:55.014Z,-1.98
2022-12-25T11:15:35.296Z,-2.00
2022-12-25T11:18:03.289Z,-2.02
2022-12-25T11:20:33.424Z,-2.13
2022-12-25T11:23:01.507Z,-2.07
2022-12-25T11:25:29.622Z,-2.01
2022-12-25T11:27:58.881Z,-2.21
2022-12-25T11:30:27.192Z,-2.26
2022-12-25T11:32:56.848Z,-2.15
2022-12-25T11:35:29.480Z,-2.00
2022-12-25T11:37:59.075Z,-2.01
2022-12-25T11:40:29.077Z,-2.10
2022-12-25T11:43:04.110Z,-2.04
2022-12-25T11:45:38.782Z,-1.96
2022-12-25T11:48:10.800Z,-2.16
2022-12-25T11:50:40.841Z,-2.07
2022-12-25T11:53:14.770Z,-2.08
2022-12-25T11:55:44.549Z,-2.15
2022-12-25T11:58:17.275Z,-2.07
2022-12-25T12:00:47.839Z,-2.10
2022-12-25T12:03:18.340Z,-2.17
2022-12-25T12:05:47.454Z,-2.12
2022-12-25T12:08:16.861Z,-2.17
2022-12-25T12:10:58.917Z,-2.28
2022-12-25T12:13:34.051Z,-2.31
2022-12-25T12:16:04.211Z,-2.23
2022-12-25T12:18:33.645Z,-2.12
2022-12-25T12:21:03.334Z,-2.05
2022-12-25T12:23:34.916Z,-2.09
2022-12-25T12:26:03.171Z,-2.22
2022-12-25T12:28:35.595Z,-2.18
2022-12-25T12:31:05.144Z,-2.26
2022-12-25T12:33:36.487Z,-2.25
2022-12-25T12:36:05.851Z,-2.25
2022-12-25T12:38:36.083Z,-2.30
2022-12-25T12:41:05.568Z,-2.31
2022-12-25T12:43:36.134Z,-2.26
2022-12-25T12:46:06.790Z,-2.22
2022-12-25T12:48:39.927Z,-2.39
2022-12-25T12:51:08.983Z,-2.42
2022-12-25T12:53:39.510Z,-2.43
2022-12-25T12:56:11.033Z,-2.31
2022-12-25T12:58:40.897Z,-2.47
2022-12-25T13:01:13.592Z,-2.51
2022-12-25T13:03:56.460Z,-2.41
2022-12-25T13:06:29.187Z,-2.48
2022-12-25T13:09:06.378Z,-2.59
2022-12-25T13:11:38.882Z,-2.53
2022-12-25T13:14:07.053Z,-2.40
2022-12-25T13:16:36.224Z,-2.36
2022-12-25T13:19:06.866Z,-2.39
2022-12-25T13:21:35.228Z,-2.54
2022-12-25T13:24:09.085Z,-2.52
2022-12-25T13:26:39.106Z,-2.54
2022-12-25T13:29:11.537Z,-2.49
2022-12-25T13:31:41.944Z,-2.55
2022-12-25T13:34:19.261Z,-2.53
2022-12-25T13:36:47.215Z,-2.58
2022-12-25T13:39:18.187Z,-2.65
2022-12-25T13:42:04.745Z,-2.64
2022-12-25T13:44:37.836Z,-2.65
2022-12-25T13:47:09.803Z,-2.68
2022-12-25T13:49:38.860Z,-2.69
2022-12-25T13:52:12.182Z,-2.71
2022-12-25T13:54:41.660Z,-2.83
2022-12-25T13:57:13.324Z,-2.89
2022-12-25T13:59:41.419Z,-2.95
2022-12-25T14:02:16.094Z,-3.09
2022-12-25T14:04:45.624Z,-3.11
2022-12-25T14:07:13.898Z,-3.20
2022-12-25T14:09:43.487Z,-3.17
2022-12-25T14:12:17.351Z,-3.12
2022-12-25T14:14:47.435Z,-3.10
2022-12-25T14:17:15.487Z,-3.14
2022-12-25T14:19:43.569Z,-3.29
2022-12-25T14:22:13.037Z,-3.26
2022-12-25T14:24:41.444Z,-3.26
2022-12-25T14:27:19.287Z,-3.26
2022-12-25T14:29:48.471Z,-3.28
2022-12-25T14:32:17.910Z,-3.28
2022-12-25T14:34:46.591Z,-3.31
2022-12-25T14:37:16.939Z,-3.32
2022-12-25T14:39:48.239Z,-3.34
2022-12-25T14:45:32.544Z,-3.49
2022-12-25T14:48:03.079Z,-3.49
2022-12-25T14:50:32.740Z,-3.48
2022-12-25T14:53:01.244Z,-3.50
2022-12-25T14:55:30.376Z,-3.46
2022-12-25T14:58:01.247Z,-3.47
2022-12-25T15:00:31.860Z,-3.47
2022-12-25T15:03:00.777Z,-3.40
2022-12-25T15:05:30.759Z,-3.24
2022-12-25T15:08:07.174Z,-3.13
2022-12-25T15:13:25.671Z,-3.16
2022-12-25T15:15:56.191Z,-3.18
2022-12-25T15:18:25.432Z,-3.26
2022-12-25T15:20:54.416Z,-3.32
2022-12-25T15:23:22.867Z,-3.24
2022-12-25T15:25:52.229Z,-3.25
2022-12-25T15:28:20.192Z,-3.28
2022-12-25T15:30:51.004Z,-3.35
2022-12-25T15:33:19.980Z,-3.34
2022-12-25T15:35:47.943Z,-3.44
2022-12-25T15:38:16.202Z,-3.47
2022-12-25T15:40:44.400Z,-3.53
2022-12-25T15:43:39.036Z,-3.53
2022-12-25T15:46:04.321Z,-3.50
2022-12-25T15:48:32.301Z,-3.48
2022-12-25T15:51:00.294Z,-3.41
2022-12-25T15:53:28.299Z,-3.33
2022-12-25T15:55:56.337Z,-3.32
2022-12-25T15:58:24.685Z,-3.28
2022-12-25T16:00:52.620Z,-3.26
2022-12-25T16:03:22.161Z,-3.32
2022-12-25T16:05:50.329Z,-3.28
2022-12-25T16:08:18.526Z,-3.22
2022-12-25T16:10:46.566Z,-3.11
2022-12-25T16:13:14.782Z,-2.99
2022-12-25T16:15:42.677Z,-2.93
2022-12-25T16:18:11.675Z,-2.83
2022-12-25T16:20:41.075Z,-2.81
2022-12-25T16:23:09.167Z,-2.74
2022-12-25T16:25:37.163Z,-2.79
2022-12-25T16:28:06.219Z,-2.75
2022-12-25T16:30:35.133Z,-2.68
2022-12-25T16:33:03.166Z,-2.64
2022-12-25T16:35:31.120Z,-2.62
2022-12-25T16:38:00.717Z,-2.67
2022-12-25T16:40:28.999Z,-2.80
2022-12-25T16:42:57.541Z,-2.68
2022-12-25T16:45:25.600Z,-2.66
2022-12-25T16:47:53.554Z,-2.61
2022-12-25T16:50:22.625Z,-2.61
2022-12-25T16:52:50.695Z,-2.74
2022-12-25T16:55:25.024Z,-2.63
2022-12-25T16:57:56.037Z,-2.59
2022-12-25T17:00:23.987Z,-2.79
2022-12-25T17:02:52.081Z,-2.74
2022-12-25T17:05:20.290Z,-2.79
2022-12-25T17:07:48.352Z,-2.79
2022-12-25T17:10:16.413Z,-2.88
2022-12-25T17:12:45.990Z,-2.82
2022-12-25T17:15:14.193Z,-2.77
2022-12-25T17:17:42.492Z,-2.75
2022-12-25T17:20:10.875Z,-2.77
2022-12-25T17:22:38.781Z,-2.72
2022-12-25T17:25:07.041Z,-2.76
2022-12-25T17:27:35.191Z,-2.79
2022-12-25T17:30:05.033Z,-2.82
2022-12-25T17:32:33.118Z,-2.80
2022-12-25T17:35:01.292Z,-2.82
2022-12-25T17:37:29.256Z,-2.83
2022-12-25T17:39:57.357Z,-2.75
2022-12-25T17:45:37.132Z,-2.78
2022-12-25T17:48:05.413Z,-2.72
2022-12-25T17:50:39.332Z,-2.76
2022-12-25T17:53:09.382Z,-2.73
2022-12-25T17:55:39.017Z,-2.78
2022-12-25T17:58:06.998Z,-2.86
2022-12-25T18:00:36.627Z,-2.80
2022-12-25T18:03:11.298Z,-2.80
2022-12-25T18:05:40.179Z,-2.59
2022-12-25T18:08:08.239Z,-2.61
2022-12-25T18:10:37.086Z,-2.67
2022-12-25T18:13:05.437Z,-2.53
2022-12-25T18:15:33.552Z,-2.62
2022-12-25T18:18:03.251Z,-2.55
2022-12-25T18:20:39.367Z,-2.60
2022-12-25T18:23:08.104Z,-2.54
2022-12-25T18:25:36.115Z,-2.48
2022-12-25T18:28:04.142Z,-2.40
2022-12-25T18:30:32.300Z,-2.41
2022-12-25T18:33:00.248Z,-2.39
2022-12-25T18:35:30.024Z,-2.34
2022-12-25T18:37:58.112Z,-2.34
2022-12-25T18:40:26.177Z,-2.33
2022-12-25T18:43:01.079Z,-2.23
2022-12-25T18:45:31.155Z,-2.11
2022-12-25T18:48:03.337Z,-2.07
2022-12-25T18:50:33.255Z,-2.12
2022-12-25T18:53:01.445Z,-2.20
2022-12-25T18:55:29.541Z,-2.34
2022-12-25T18:57:57.739Z,-2.38
2022-12-25T19:00:26.211Z,-2.35
2022-12-25T19:02:57.255Z,-2.25
2022-12-25T19:05:25.703Z,-2.18
2022-12-25T19:07:55.371Z,-2.18
2022-12-25T19:10:23.430Z,-2.15
2022-12-25T19:12:51.358Z,-2.22
2022-12-25T19:15:19.550Z,-2.21
2022-12-25T19:17:47.610Z,-2.15
2022-12-25T19:20:15.615Z,-2.17
2022-12-25T19:22:43.795Z,-2.18
2022-12-25T19:25:13.350Z,-2.36
2022-12-25T19:27:41.403Z,-2.41
2022-12-25T19:30:10.300Z,-2.39
2022-12-25T19:32:38.283Z,-2.37
2022-12-25T19:35:07.252Z,-2.35
2022-12-25T19:37:35.404Z,-2.26
2022-12-25T19:40:04.183Z,-2.25
2022-12-25T19:42:33.601Z,-2.25
2022-12-25T19:45:03.213Z,-2.47
2022-12-25T19:47:31.290Z,-2.71
2022-12-25T19:50:02.851Z,-2.71
2022-12-25T19:52:31.810Z,-2.72
2022-12-25T19:54:59.792Z,-2.67
2022-12-25T19:57:27.761Z,-2.64
2022-12-25T19:59:57.164Z,-2.62
2022-12-25T20:02:25.346Z,-2.71
2022-12-25T20:04:53.517Z,-2.75
2022-12-25T20:07:21.551Z,-2.69
2022-12-25T20:09:49.494Z,-2.64
2022-12-25T20:12:17.622Z,-2.71
2022-12-25T20:14:46.480Z,-2.70
2022-12-25T20:17:16.378Z,-2.75
2022-12-25T20:19:44.679Z,-2.74
2022-12-25T20:22:12.635Z,-2.77
2022-12-25T20:24:40.628Z,-2.68
2022-12-25T20:27:08.588Z,-2.66
2022-12-25T20:29:36.540Z,-2.62
2022-12-25T20:32:05.120Z,-2.66
2022-12-25T20:34:34.643Z,-2.61
2022-12-25T20:37:02.635Z,-2.51
2022-12-25T20:42:11.097Z,-2.46
2022-12-25T20:44:41.826Z,-2.49
2022-12-25T20:47:10.069Z,-2.55
2022-12-25T20:49:39.478Z,-2.57
2022-12-25T20:52:07.680Z,-2.57
2022-12-25T20:54:36.128Z,-2.66
2022-12-25T20:57:04.143Z,-2.62
2022-12-25T20:59:37.411Z,-2.56
2022-12-25T21:02:06.149Z,-2.56
2022-12-25T21:04:34.440Z,-2.52
2022-12-25T21:07:03.876Z,-2.58
2022-12-25T21:09:32.036Z,-2.54
2022-12-25T21:12:00.137Z,-2.48
2022-12-25T21:14:29.679Z,-2.45
2022-12-25T21:16:57.684Z,-2.40
2022-12-25T21:19:26.101Z,-2.38
2022-12-25T21:21:54.153Z,-2.34
2022-12-25T21:24:23.666Z,-2.32
2022-12-25T21:26:51.590Z,-2.35
2022-12-25T21:29:22.980Z,-2.37
2022-12-25T21:32:08.785Z,-2.47
2022-12-25T21:34:36.760Z,-2.48
2022-12-25T21:37:04.903Z,-2.48
2022-12-25T21:39:34.508Z,-2.48
2022-12-25T21:42:04.655Z,-2.48
2022-12-25T21:44:32.804Z,-2.50
2022-12-25T21:47:00.837Z,-2.59
2022-12-25T21:49:46.069Z,-2.66
2022-12-25T21:52:16.107Z,-2.67
2022-12-25T21:54:45.668Z,-2.54
2022-12-25T21:57:13.691Z,-2.67
2022-12-25T21:59:41.663Z,-2.65
2022-12-25T22:02:11.637Z,-2.63
2022-12-25T22:04:40.170Z,-2.62
2022-12-25T22:07:19.161Z,-2.61
2022-12-25T22:09:49.547Z,-2.53
2022-12-25T22:12:35.823Z,-2.52
2022-12-25T22:15:06.697Z,-2.62
2022-12-25T22:17:52.763Z,-2.63
2022-12-25T22:20:21.530Z,-2.61
2022-12-25T22:22:49.560Z,-2.48
2022-12-25T22:25:19.271Z,-2.46
2022-12-25T22:27:47.838Z,-2.37
2022-12-25T22:30:17.042Z,-2.40
2022-12-25T22:32:45.022Z,-2.41
2022-12-25T22:35:13.549Z,-2.55
2022-12-25T22:37:41.845Z,-2.42
2022-12-25T22:40:10.788Z,-2.36
2022-12-25T22:42:40.129Z,-2.29
2022-12-25T22:45:08.709Z,-2.25
2022-12-25T22:47:36.852Z,-2.23
2022-12-25T22:50:05.270Z,-2.22
2022-12-25T22:52:33.520Z,-2.15
2022-12-25T22:57:49.502Z,-2.33
2022-12-25T23:00:17.439Z,-2.24
2022-12-25T23:02:45.519Z,-2.24
2022-12-25T23:05:13.657Z,-2.24
2022-12-25T23:07:41.918Z,-2.26
2022-12-25T23:10:10.913Z,-2.30
2022-12-25T23:12:56.453Z,-2.28
2022-12-25T23:15:27.813Z,-2.53
2022-12-25T23:18:13.187Z,-2.46
2022-12-25T23:20:58.753Z,-2.36
2022-12-25T23:23:52.840Z,-2.40
2022-12-25T23:26:21.414Z,-2.42
2022-12-25T23:29:06.890Z,-2.47
2022-12-25T23:31:37.357Z,-2.41
2022-12-25T23:34:06.153Z,-2.43
2022-12-25T23:39:41.984Z,-2.43
2022-12-25T23:42:10.168Z,-2.51
2022-12-25T23:44:38.154Z,-2.52
2022-12-25T23:47:07.597Z,-2.64
2022-12-25T23:49:35.639Z,-2.61
2022-12-25T23:52:03.671Z,-2.64
2022-12-25T23:54:32.483Z,-2.80
2022-12-25T23:57:00.852Z,-2.70
2022-12-25T23:59:30.251Z,-2.68
